Time;durP1;ratioP1;P1;durP2;ratioP2;P2;SDS_P1;SDS_P2;PMS_P1;PMS_P2;Temp;Humidity;BMP_temperature;BMP_pressure;BME280_temperature;BME280_humidity;BME280_pressure;Samples;Min_cycle;Max_cycle;Signal;HPM_P1;HPM_P2
2022/05/19 00:01:28;;;;;;;10.52;5.80;;;;;;;19.11;63.74;101793.53;5033720;28;96775;-34
2022/05/19 00:03:53;;;;;;;9.77;5.63;;;;;;;19.07;63.23;101787.44;5034237;28;99293;-34
2022/05/19 00:06:19;;;;;;;13.05;6.28;;;;;;;19.02;63.67;101795.19;5033914;28;126249;-34
2022/05/19 00:08:44;;;;;;;10.45;6.10;;;;;;;19.05;65.39;101797.66;5035305;28;96699;-34
2022/05/19 00:11:15;;;;;;;10.27;5.47;;;;;;;19.02;64.68;101784.19;5035082;28;96891;-34
2022/05/19 00:13:41;;;;;;;11.60;6.00;;;;;;;19.05;63.84;101791.31;5033342;28;101076;-34
2022/05/19 00:16:07;;;;;;;12.32;6.45;;;;;;;19.05;64.34;101785.81;5034445;28;98810;-34
2022/05/19 00:18:34;;;;;;;11.38;5.47;;;;;;;19.04;64.69;101795.94;5033747;28;96843;-34
2022/05/19 00:21:00;;;;;;;9.85;5.45;;;;;;;19.07;64.77;101800.28;5033664;28;96835;-34
2022/05/19 00:23:25;;;;;;;12.57;5.75;;;;;;;19.00;65.05;101779.81;5034926;28;97470;-34
2022/05/19 00:25:50;;;;;;;15.57;6.20;;;;;;;18.98;64.25;101768.97;5033893;28;122536;-34
2022/05/19 00:28:16;;;;;;;11.88;6.15;;;;;;;18.99;64.32;101770.69;5034379;28;96502;-34
2022/05/19 00:30:42;;;;;;;11.75;6.25;;;;;;;19.00;64.56;101769.72;5034644;28;96788;-34
2022/05/19 00:33:08;;;;;;;10.60;5.85;;;;;;;18.96;64.48;101756.34;5034651;28;97707;-34
2022/05/19 00:35:35;;;;;;;12.98;6.75;;;;;;;19.00;64.67;101764.22;5016230;28;100685;-34
2022/05/19 00:38:00;;;;;;;15.77;6.65;;;;;;;18.96;65.32;101757.22;5033317;28;96655;-34
2022/05/19 00:40:25;;;;;;;16.85;7.00;;;;;;;18.95;64.58;101750.00;5034299;28;107505;-34
2022/05/19 00:42:51;;;;;;;13.90;7.00;;;;;;;18.92;65.51;101747.47;5034342;28;99784;-34
2022/05/19 00:45:26;;;;;;;16.73;7.60;;;;;;;18.92;65.62;101744.75;5034773;28;97752;-34
2022/05/19 00:48:05;;;;;;;14.95;6.85;;;;;;;18.87;66.07;101736.00;5016649;28;96573;-33
2022/05/19 00:50:43;;;;;;;13.73;6.80;;;;;;;18.83;66.45;101729.03;5016453;28;96744;-34
2022/05/19 00:53:15;;;;;;;11.35;6.90;;;;;;;18.81;65.70;101723.69;5015576;28;100861;-34
2022/05/19 00:55:44;;;;;;;15.45;6.75;;;;;;;18.82;66.16;101727.28;5033054;28;100442;-34
2022/05/19 00:58:22;;;;;;;13.25;6.80;;;;;;;18.88;66.81;101737.78;5016302;28;96578;-34
2022/05/19 01:00:47;;;;;;;13.63;6.40;;;;;;;18.88;66.05;101726.78;5034330;28;96665;-33
2022/05/19 01:03:15;;;;;;;12.30;6.78;;;;;;;18.92;65.17;101728.25;5034175;28;99240;-34
2022/05/19 01:05:46;;;;;;;14.25;6.18;;;;;;;18.89;67.38;101712.06;5032719;28;100706;-34
2022/05/19 01:08:13;;;;;;;18.35;7.40;;;;;;;18.91;66.10;101721.03;5032939;28;96602;-34
2022/05/19 01:10:40;;;;;;;13.15;7.25;;;;;;;18.91;65.72;101714.69;5034524;28;96890;-34
2022/05/19 01:13:06;;;;;;;20.08;7.90;;;;;;;18.91;65.82;101714.69;5015985;28;100890;-34
2022/05/19 01:15:39;;;;;;;15.55;7.40;;;;;;;18.81;67.44;101696.22;5034016;28;96633;-34
2022/05/19 01:18:04;;;;;;;13.63;7.30;;;;;;;18.86;67.13;101709.56;5032016;28;96579;-34
2022/05/19 01:20:30;;;;;;;12.95;7.45;;;;;;;18.83;66.73;101698.81;5034148;28;96822;-34
2022/05/19 01:22:55;;;;;;;15.00;7.38;;;;;;;18.87;66.21;101697.56;5032069;28;100864;-34
2022/05/19 01:25:43;;;;;;;14.37;6.87;;;;;;;18.83;68.16;101691.50;5033591;28;108716;-34
2022/05/19 01:28:09;;;;;;;15.40;7.75;;;;;;;18.81;66.18;101685.25;5016058;28;96543;-34
2022/05/19 01:30:34;;;;;;;14.65;7.22;;;;;;;18.89;65.88;101701.94;5035747;27;97006;-34
2022/05/19 01:33:00;;;;;;;16.38;7.72;;;;;;;18.87;66.38;101687.47;5037207;28;98999;-34
2022/05/19 01:35:31;;;;;;;18.48;8.18;;;;;;;18.87;66.45;101683.84;5037517;28;97792;-34
2022/05/19 01:37:57;;;;;;;17.20;7.18;;;;;;;18.84;66.89;101684.13;5036106;28;96876;-34
2022/05/19 01:41:00;;;;;;;15.45;7.57;;;;;;;18.95;67.50;101691.44;5036016;28;96808;-34
2022/05/19 01:43:37;;;;;;;15.98;7.50;;;;;;;18.86;68.71;101676.63;5036904;28;97800;-34
2022/05/19 01:46:34;;;;;;;16.17;8.32;;;;;;;18.91;67.25;101684.47;5036650;28;112757;-34
2022/05/19 01:49:17;;;;;;;18.25;7.32;;;;;;;18.85;67.41;101672.13;5019135;28;96760;-34
2022/05/19 01:52:02;;;;;;;16.55;8.23;;;;;;;18.86;68.25;101672.00;5035868;28;96805;-34
2022/05/19 01:54:40;;;;;;;18.50;8.00;;;;;;;18.91;67.79;101684.47;5018820;28;100778;-34
2022/05/19 01:57:13;;;;;;;16.10;7.93;;;;;;;18.89;66.82;101701.94;5018782;28;101230;-34
2022/05/19 01:59:45;;;;;;;13.52;7.38;;;;;;;19.00;66.50;101736.75;5035858;28;96504;-34
2022/05/19 02:02:29;;;;;;;18.13;7.97;;;;;;;18.99;67.32;101754.22;5037938;28;96575;-34
2022/05/19 02:04:58;;;;;;;16.60;7.97;;;;;;;18.97;67.12;101752.59;5037061;28;97352;-34
2022/05/19 02:07:26;;;;;;;20.45;8.27;;;;;;;19.00;67.13;101747.75;5035259;28;104127;-34
2022/05/19 02:09:56;;;;;;;15.43;8.05;;;;;;;19.02;68.28;101729.28;5035033;28;96742;-34
2022/05/19 02:12:23;;;;;;;20.30;9.60;;;;;;;18.96;70.71;101717.91;5018573;28;96744;-34
2022/05/19 02:14:55;;;;;;;16.98;8.13;;;;;;;18.94;69.00;101736.38;5035041;28;100869;-34
2022/05/19 02:17:23;;;;;;;20.20;9.27;;;;;;;18.93;68.35;101784.94;5034761;28;100703;-34
2022/05/19 02:19:53;;;;;;;16.23;7.13;;;;;;;18.85;74.48;101790.16;5018649;28;96536;-34
2022/05/19 02:22:23;;;;;;;22.38;9.15;;;;;;;18.83;72.12;101808.63;5036492;28;96890;-34
2022/05/19 02:24:57;;;;;;;22.92;9.38;;;;;;;18.81;70.44;101803.28;5018401;28;100663;-34
2022/05/19 02:27:38;;;;;;;18.52;9.00;;;;;;;18.86;73.11;101800.16;5035216;28;101126;-34
2022/05/19 02:30:08;;;;;;;23.73;9.43;;;;;;;18.83;71.00;101782.09;5035349;28;96679;-34
2022/05/19 02:32:35;;;;;;;22.65;10.00;;;;;;;18.85;72.27;101802.06;5018439;28;96551;-34
2022/05/19 02:35:01;;;;;;;22.33;10.15;;;;;;;18.82;72.16;101809.66;5035703;28;98813;-34
2022/05/19 02:37:26;;;;;;;17.52;9.10;;;;;;;18.84;71.29;101802.16;5018182;28;100873;-34
2022/05/19 02:39:52;;;;;;;17.40;9.05;;;;;;;18.87;71.62;101791.78;5018503;28;96673;-34
2022/05/19 02:42:23;;;;;;;19.27;9.70;;;;;;;18.90;72.61;101779.69;5035952;27;96741;-34
2022/05/19 02:44:48;;;;;;;18.92;9.30;;;;;;;18.86;73.03;101781.81;5035276;28;126885;-34
2022/05/19 02:47:14;;;;;;;19.80;7.95;;;;;;;18.81;72.47;101797.81;5035128;28;126483;-34
2022/05/19 02:49:39;;;;;;;14.45;6.07;;;;;;;18.81;75.08;101814.28;5035630;28;106539;-34
2022/05/19 02:52:05;;;;;;;11.93;6.18;;;;;;;18.84;72.92;101799.41;5036574;28;96799;-34
2022/05/19 02:54:30;;;;;;;11.20;5.03;;;;;;;18.79;73.11;101790.69;5035850;28;98052;-34
2022/05/19 02:56:55;;;;;;;8.38;3.55;;;;;;;18.80;74.13;101818.00;5036466;28;97219;-34
2022/05/19 02:59:21;;;;;;;7.40;3.00;;;;;;;18.82;73.36;101834.34;5035647;28;96546;-34
2022/05/19 03:01:46;;;;;;;4.63;2.58;;;;;;;18.76;73.67;101830.25;5035302;28;108200;-33
2022/05/19 03:04:11;;;;;;;5.57;2.17;;;;;;;18.72;75.43;101831.44;5036005;28;98006;-33
2022/05/19 03:06:37;;;;;;;5.10;2.63;;;;;;;18.65;75.77;101817.34;5035075;28;127203;-34
2022/05/19 03:09:04;;;;;;;3.58;1.88;;;;;;;18.70;75.75;101806.00;5036066;28;97120;-34
2022/05/19 03:11:29;;;;;;;6.45;2.15;;;;;;;18.68;74.26;101781.41;5034406;28;96882;-34
2022/05/19 03:13:55;;;;;;;6.13;2.28;;;;;;;18.72;74.22;101776.56;5036063;28;97350;-33
2022/05/19 03:16:20;;;;;;;3.88;2.00;;;;;;;18.78;75.34;101766.97;5035162;28;126415;-34
2022/05/19 03:18:45;;;;;;;6.45;2.28;;;;;;;18.76;74.17;101756.13;5035740;28;96508;-33
2022/05/19 03:21:10;;;;;;;5.88;2.72;;;;;;;18.82;73.78;101760.22;5034767;28;113342;-34
2022/05/19 03:23:36;;;;;;;3.83;2.10;;;;;;;18.87;73.40;101749.75;5034083;28;126651;-34
2022/05/19 03:26:01;;;;;;;3.58;2.15;;;;;;;18.77;74.32;101735.91;5034405;28;128376;-33
2022/05/19 03:28:26;;;;;;;4.55;2.42;;;;;;;18.87;73.67;101757.97;5035779;28;96536;-34
2022/05/19 03:30:52;;;;;;;4.80;2.33;;;;;;;18.83;73.35;101754.63;5034891;28;116518;-33
2022/05/19 03:33:17;;;;;;;4.95;2.65;;;;;;;18.83;73.20;101770.19;5035572;28;98413;-33
2022/05/19 03:35:43;;;;;;;4.78;2.28;;;;;;;18.83;73.00;101782.09;5035232;28;99061;-34
2022/05/19 03:38:09;;;;;;;7.20;2.35;;;;;;;18.81;73.22;101774.97;5035729;28;96585;-34
2022/05/19 03:40:35;;;;;;;8.20;2.55;;;;;;;18.75;74.25;101786.41;5036045;28;96655;-34
2022/05/19 03:43:00;;;;;;;6.20;2.35;;;;;;;18.75;74.38;101813.84;5035352;28;97891;-34
2022/05/19 03:45:26;;;;;;;5.70;2.53;;;;;;;18.71;74.94;101834.31;5034791;28;113074;-34
2022/05/19 03:47:54;;;;;;;8.52;2.45;;;;;;;18.67;75.13;101856.50;5033637;28;96624;-34
2022/05/19 03:50:20;;;;;;;16.83;2.60;;;;;;;18.65;75.87;101871.34;5035526;28;96821;-34
2022/05/19 03:52:45;;;;;;;7.88;3.15;;;;;;;18.73;74.79;101876.22;5033826;27;104081;-34
2022/05/19 03:55:12;;;;;;;7.15;2.50;;;;;;;18.78;74.65;101901.47;5034145;28;126407;-34
2022/05/19 03:57:38;;;;;;;9.68;3.33;;;;;;;18.77;75.62;101927.19;5017337;28;96531;-33
2022/05/19 04:00:06;;;;;;;5.75;3.38;;;;;;;18.79;76.10;101893.13;5035334;28;96787;-34
2022/05/19 04:02:31;;;;;;;11.90;3.88;;;;;;;18.71;75.13;101889.19;5035105;28;98120;-33
2022/05/19 04:04:57;;;;;;;7.07;3.83;;;;;;;18.79;75.11;101884.88;5035528;28;97841;-33
2022/05/19 04:07:22;;;;;;;12.13;4.05;;;;;;;18.77;75.17;101859.44;5034284;28;115702;-34
2022/05/19 04:09:47;;;;;;;10.73;4.55;;;;;;;18.76;74.59;101832.06;5035112;28;96878;-34
2022/05/19 04:12:17;;;;;;;12.82;5.22;;;;;;;18.81;74.40;101836.22;5034309;28;97921;-33
2022/05/19 04:14:42;;;;;;;12.93;5.45;;;;;;;18.81;74.34;101840.84;5033338;28;101100;-34
2022/05/19 04:17:08;;;;;;;10.52;5.00;;;;;;;18.80;74.04;101828.97;5034743;28;96543;-34
2022/05/19 04:19:35;;;;;;;10.50;5.40;;;;;;;18.77;74.11;101811.91;5034973;28;96691;-33
2022/05/19 04:22:01;;;;;;;10.75;5.07;;;;;;;18.76;74.66;101823.81;5034033;28;99460;-34
2022/05/19 04:24:27;;;;;;;12.23;5.55;;;;;;;18.78;75.12;101838.34;5034497;28;99265;-34
2022/05/19 04:26:52;;;;;;;12.05;5.43;;;;;;;18.78;74.42;101838.34;5016806;28;96568;-34
2022/05/19 04:29:18;;;;;;;15.18;6.40;;;;;;;18.80;74.70;101845.44;5035068;28;96843;-34
2022/05/19 04:31:43;;;;;;;13.20;5.60;;;;;;;18.81;74.82;101843.59;5034666;28;97936;-33
2022/05/19 04:34:08;;;;;;;13.88;5.85;;;;;;;18.80;74.96;101839.09;5034317;28;99234;-34
2022/05/19 04:36:33;;;;;;;14.23;7.10;;;;;;;18.78;75.26;101838.34;5033453;28;114358;-34
2022/05/19 04:38:59;;;;;;;15.43;7.45;;;;;;;18.75;75.36;101835.81;5034724;28;96874;-33
2022/05/19 04:41:24;;;;;;;14.40;6.85;;;;;;;18.78;74.46;101841.06;5034459;28;97989;-34
2022/05/19 04:43:51;;;;;;;11.15;6.15;;;;;;;18.72;74.69;101827.84;5034429;28;97815;-33
2022/05/19 04:46:16;;;;;;;12.88;7.22;;;;;;;18.79;74.78;101854.69;5033318;28;96709;-33
2022/05/19 04:48:42;;;;;;;14.50;7.10;;;;;;;18.79;74.85;101842.84;5034673;28;96824;-33
2022/05/19 04:51:07;;;;;;;14.20;7.40;;;;;;;18.73;74.94;101841.41;5034021;28;99031;-34
2022/05/19 04:53:33;;;;;;;15.48;7.47;;;;;;;18.67;74.91;101826.31;5034490;28;107474;-34
2022/05/19 04:55:58;;;;;;;13.57;7.20;;;;;;;18.72;74.99;101834.19;5034361;28;96602;-34
2022/05/19 04:58:24;;;;;;;14.30;8.00;;;;;;;18.76;74.52;101818.34;5033978;28;105034;-33
2022/05/19 05:00:51;;;;;;;14.02;7.18;;;;;;;18.75;74.91;101789.16;5033840;28;97529;-33
2022/05/19 05:03:17;;;;;;;15.98;8.38;;;;;;;18.81;74.76;101805.16;5015979;28;100360;-33
2022/05/19 05:05:42;;;;;;;15.38;7.65;;;;;;;18.72;74.50;101781.19;5019620;28;96510;-34
2022/05/19 05:08:08;;;;;;;18.48;8.23;;;;;;;18.75;74.47;101786.41;5037975;28;96741;-34
2022/05/19 05:10:34;;;;;;;13.75;7.47;;;;;;;18.77;74.86;101773.47;5037606;28;97904;-34
2022/05/19 05:13:11;;;;;;;14.93;8.10;;;;;;;18.85;75.27;101777.34;5036137;28;100635;-34
2022/05/19 05:15:38;;;;;;;18.10;8.73;;;;;;;18.84;74.46;101770.09;5019920;28;96815;-33
2022/05/19 05:18:05;;;;;;;15.40;7.88;;;;;;;18.84;75.05;101763.72;5036298;28;96939;-33
2022/05/19 05:20:30;;;;;;;20.08;8.70;;;;;;;18.84;75.07;101761.84;5035732;28;101090;-34
2022/05/19 05:22:56;;;;;;;15.40;8.40;;;;;;;18.87;75.32;101752.50;5037024;28;98916;-33
2022/05/19 05:25:22;;;;;;;16.38;8.05;;;;;;;18.81;74.97;101734.66;5019039;28;96926;-34
2022/05/19 05:27:47;;;;;;;17.40;8.38;;;;;;;18.89;74.39;101734.88;5037766;28;96804;-34
2022/05/19 05:30:13;;;;;;;15.95;7.45;;;;;;;18.93;74.39;101738.28;5036126;28;128377;-34
2022/05/19 05:32:39;;;;;;;17.85;8.20;;;;;;;18.91;75.60;101728.41;5019321;28;100982;-33
2022/05/19 05:35:08;;;;;;;19.40;8.35;;;;;;;18.95;74.49;101741.75;5037503;28;96674;-34
2022/05/19 05:37:33;;;;;;;21.17;9.55;;;;;;;18.96;74.20;101751.72;5037524;28;96770;-34
2022/05/19 05:39:58;;;;;;;17.83;9.48;;;;;;;18.94;74.83;101744.63;5037252;28;97689;-33
2022/05/19 05:42:24;;;;;;;21.95;8.30;;;;;;;18.93;75.14;101732.78;5036599;28;127144;-33
2022/05/19 05:44:49;;;;;;;22.35;9.40;;;;;;;18.97;75.13;101739.72;5037511;28;96485;-33
2022/05/19 05:47:15;;;;;;;19.05;8.68;;;;;;;18.96;74.96;101738.00;5037398;28;97002;-33
2022/05/19 05:49:40;;;;;;;24.38;9.88;;;;;;;19.00;74.99;101738.63;5036633;28;97483;-34
2022/05/19 05:52:06;;;;;;;19.85;8.70;;;;;;;18.99;75.12;101723.13;5035489;28;100892;-34
2022/05/19 05:54:32;;;;;;;24.75;9.25;;;;;;;19.00;75.01;101712.03;5035835;28;96719;-33
2022/05/19 05:56:58;;;;;;;18.20;8.38;;;;;;;19.05;75.08;101704.28;5037736;28;96901;-34
2022/05/19 05:59:24;;;;;;;16.10;8.73;;;;;;;19.00;75.70;101684.59;5037153;28;97755;-33
2022/05/19 06:01:49;;;;;;;20.67;8.82;;;;;;;19.01;75.00;101690.94;5037212;28;97805;-34
2022/05/19 06:04:15;;;;;;;21.55;8.90;;;;;;;19.04;75.04;101682.44;5036445;28;108272;-34
2022/05/19 06:06:40;;;;;;;21.00;10.02;;;;;;;19.08;75.29;101684.78;5037824;28;96765;-34
2022/05/19 06:09:06;;;;;;;20.13;9.50;;;;;;;19.16;74.56;101684.13;5036924;28;98017;-34
2022/05/19 06:11:31;;;;;;;20.42;8.98;;;;;;;19.15;74.74;101673.31;5036986;28;97207;-34
2022/05/19 06:13:56;;;;;;;17.75;9.00;;;;;;;19.15;74.85;101668.69;5036609;28;106445;-33
2022/05/19 06:16:22;;;;;;;23.40;9.18;;;;;;;19.17;74.96;101674.06;5036092;27;96840;-33
2022/05/19 06:18:47;;;;;;;18.80;8.82;;;;;;;19.19;74.77;101675.66;5036120;28;97456;-34
2022/05/19 06:21:14;;;;;;;17.33;9.02;;;;;;;19.27;74.85;101684.09;5036691;28;96540;-33
2022/05/19 06:23:39;;;;;;;16.42;9.50;;;;;;;19.31;74.94;101690.22;5036466;28;96681;-34
2022/05/19 06:26:05;;;;;;;20.58;9.48;;;;;;;19.33;75.44;101698.31;5035899;28;116969;-34
2022/05/19 06:28:31;;;;;;;18.20;9.27;;;;;;;19.35;74.38;101696.31;5018424;28;100994;-34
2022/05/19 06:30:56;;;;;;;19.10;10.10;;;;;;;19.35;74.70;101699.94;5035155;28;99322;-34
2022/05/19 06:33:22;;;;;;;18.42;8.93;;;;;;;19.33;74.91;101699.22;5036659;28;96738;-34
2022/05/19 06:35:48;;;;;;;21.90;8.40;;;;;;;19.40;74.58;101708.69;5036851;28;96965;-33
2022/05/19 06:38:14;;;;;;;22.95;10.98;;;;;;;19.41;74.52;101701.31;5017654;28;101366;-33
2022/05/19 06:40:40;;;;;;;21.52;9.45;;;;;;;19.38;74.04;101691.44;5036001;28;99133;-33
2022/05/19 06:43:11;;;;;;;20.48;10.10;;;;;;;19.42;74.68;101692.03;5036583;28;96540;-34
2022/05/19 06:45:37;;;;;;;20.50;9.40;;;;;;;19.49;74.24;101693.25;5018544;28;96874;-34
2022/05/19 06:48:02;;;;;;;22.73;9.75;;;;;;;19.52;75.38;101696.63;5036300;28;97945;-34
2022/05/19 06:50:28;;;;;;;22.00;10.25;;;;;;;19.55;75.56;101702.88;5018723;28;97311;-34
2022/05/19 06:53:02;;;;;;;24.23;10.27;;;;;;;19.58;75.10;101694.34;5036301;28;103012;-34
2022/05/19 06:55:28;;;;;;;20.60;9.32;;;;;;;19.61;74.87;101691.34;5018723;28;96814;-34
2022/05/19 06:57:54;;;;;;;19.92;9.00;;;;;;;19.68;74.27;101704.44;5034672;28;101155;-34
2022/05/19 07:00:22;;;;;;;17.52;8.95;;;;;;;19.77;74.53;101707.41;5035855;28;97860;-34
2022/05/19 07:02:52;;;;;;;18.42;9.50;;;;;;;19.79;74.65;101692.53;5017653;28;96601;-34
2022/05/19 07:05:20;;;;;;;18.42;8.90;;;;;;;19.88;73.92;101716.47;5036026;28;96714;-34
2022/05/19 07:07:46;;;;;;;15.20;8.57;;;;;;;19.98;74.71;101721.19;5034216;28;104578;-34
2022/05/19 07:10:14;;;;;;;16.70;7.32;;;;;;;20.06;74.91;101722.22;5035742;28;99251;-34
2022/05/19 07:12:40;;;;;;;15.15;8.02;;;;;;;20.13;73.63;101728.94;5035781;28;96774;-34
2022/05/19 07:15:06;;;;;;;22.25;7.55;;;;;;;20.20;73.71;101728.41;5036044;28;96835;-33
2022/05/19 07:17:31;;;;;;;16.80;7.65;;;;;;;20.23;73.62;101725.38;5033799;28;101242;-34
2022/05/19 07:22:40;;;;;;;13.90;6.25;;;;;;;20.33;73.08;101746.44;5036140;28;96857;-34
2022/05/19 07:25:08;;;;;;;13.38;6.40;;;;;;;20.29;73.41;101755.09;5035635;28;102272;-34
2022/05/19 07:27:34;;;;;;;17.95;7.10;;;;;;;20.31;73.04;101750.34;5032985;27;100823;-34
2022/05/19 07:30:00;;;;;;;16.40;7.55;;;;;;;20.36;73.30;101754.41;5033976;28;101409;-34
2022/05/19 07:32:26;;;;;;;15.77;8.35;;;;;;;20.44;72.68;101748.22;5034229;28;96597;-34
2022/05/19 07:34:52;;;;;;;12.93;7.07;;;;;;;20.45;73.82;101740.84;5035974;28;96848;-34
2022/05/19 07:37:17;;;;;;;12.93;7.18;;;;;;;20.45;73.40;101741.72;5035493;28;98023;-34
2022/05/19 07:39:43;;;;;;;21.20;6.38;;;;;;;20.50;73.46;101742.19;5035400;28;97855;-34
2022/05/19 07:42:08;;;;;;;13.52;6.22;;;;;;;20.50;72.68;101733.94;5035291;28;96669;-34
2022/05/19 07:44:34;;;;;;;14.93;6.25;;;;;;;20.50;72.56;101733.06;5035829;28;96604;-34
2022/05/19 07:47:00;;;;;;;12.57;6.05;;;;;;;20.53;72.63;101741.03;5035218;28;97944;-34
2022/05/19 07:49:25;;;;;;;13.25;6.35;;;;;;;20.50;72.46;101733.94;5034493;28;126624;-33
2022/05/19 07:51:50;;;;;;;15.13;6.32;;;;;;;20.56;72.94;101744.41;5034429;28;100229;-33
2022/05/19 07:54:19;;;;;;;9.60;5.05;;;;;;;20.62;73.15;101748.50;5035401;28;96799;-33
2022/05/19 07:56:45;;;;;;;13.25;5.78;;;;;;;20.59;72.96;101737.75;5016812;28;100828;-34
2022/05/19 07:59:12;;;;;;;11.57;5.50;;;;;;;20.71;72.10;101739.44;5016792;28;100797;-34
2022/05/19 08:01:40;;;;;;;16.00;5.90;;;;;;;20.88;72.23;101740.66;5033692;28;96717;-34
2022/05/19 08:04:06;;;;;;;13.55;5.93;;;;;;;21.03;71.72;101749.38;5033799;28;96839;-33
2022/05/19 08:06:33;;;;;;;15.45;6.22;;;;;;;21.13;71.40;101743.88;5033446;28;101045;-34
2022/05/19 08:08:59;;;;;;;10.70;5.57;;;;;;;21.26;71.22;101754.63;5035356;28;97298;-35
2022/05/19 08:11:28;;;;;;;10.25;5.30;;;;;;;21.30;70.76;101745.09;5033403;28;96859;-34
2022/05/19 08:16:38;;;;;;;9.63;3.95;;;;;;;21.58;69.53;101733.25;5034597;28;96615;-34
2022/05/19 08:19:04;;;;;;;10.45;5.18;;;;;;;21.76;69.17;101724.22;5034577;28;99168;-34
2022/05/19 08:21:31;;;;;;;12.73;5.05;;;;;;;21.92;68.67;101723.66;5016545;28;96491;-34
2022/05/19 08:23:57;;;;;;;14.30;4.57;;;;;;;21.98;68.88;101720.31;5034863;28;96790;-34
2022/05/19 08:26:22;;;;;;;8.75;4.40;;;;;;;22.09;68.20;101722.03;5034756;28;98170;-34
2022/05/19 08:28:49;;;;;;;10.18;4.07;;;;;;;22.16;67.96;101723.16;5034386;28;98645;-34
2022/05/19 08:31:24;;;;;;;8.15;3.85;;;;;;;22.21;67.71;101721.72;5033427;28;96592;-34
2022/05/19 08:33:54;;;;;;;9.73;4.15;;;;;;;22.24;68.00;101713.16;5017191;28;96907;-34
2022/05/19 08:36:21;;;;;;;15.60;4.60;;;;;;;22.51;67.81;101721.66;5034721;28;97947;-34
2022/05/19 08:38:47;;;;;;;9.63;4.15;;;;;;;22.76;66.23;101722.84;5032427;28;100914;-34
2022/05/19 08:41:33;;;;;;;9.65;4.05;;;;;;;23.07;66.45;101729.84;5034039;28;96719;-33
2022/05/19 08:44:10;;;;;;;8.30;4.13;;;;;;;23.29;65.41;101723.00;5034535;28;96811;-34
2022/05/19 08:46:39;;;;;;;11.00;4.60;;;;;;;23.49;65.36;101717.31;5034065;28;99437;-34
2022/05/19 08:49:10;;;;;;;11.20;4.90;;;;;;;23.73;64.61;101725.88;5034111;28;99569;-33
2022/05/19 08:51:56;;;;;;;12.95;4.13;;;;;;;23.95;64.00;101729.16;5033407;28;96748;-33
2022/05/19 08:54:23;;;;;;;11.65;4.03;;;;;;;24.01;63.38;101725.75;5016660;28;96832;-34
2022/05/19 08:57:00;;;;;;;12.35;4.43;;;;;;;23.98;63.18;101733.50;5016035;28;100799;-34
2022/05/19 08:59:54;;;;;;;14.75;4.60;;;;;;;24.16;62.76;101731.56;5033313;28;100763;-34
2022/05/19 09:02:27;;;;;;;11.82;4.70;;;;;;;24.33;61.58;101732.56;5034244;28;96615;-34
2022/05/19 09:05:05;;;;;;;9.05;3.95;;;;;;;24.36;61.52;101735.88;5033306;28;96785;-34
2022/05/19 09:10:43;;;;;;;8.02;4.28;;;;;;;24.22;61.82;101739.25;5032377;28;96995;-34
2022/05/19 09:13:36;;;;;;;12.50;5.10;;;;;;;24.03;62.73;101753.28;5034383;28;96594;-33
2022/05/19 09:16:18;;;;;;;12.88;5.03;;;;;;;23.85;63.04;101750.53;5034418;28;96697;-34
2022/05/19 09:18:49;;;;;;;10.60;3.95;;;;;;;23.79;63.62;101752.06;5015277;28;100672;-34
2022/05/19 09:21:14;;;;;;;14.93;5.70;;;;;;;23.76;63.18;101757.03;5033957;28;97277;-34
2022/05/19 09:23:40;;;;;;;9.82;4.97;;;;;;;23.68;64.07;101764.19;5034336;28;96492;-34
2022/05/19 09:26:24;;;;;;;12.48;5.35;;;;;;;23.70;63.98;101756.59;5034816;28;96757;-34
2022/05/19 09:28:58;;;;;;;11.05;4.70;;;;;;;23.72;63.50;101749.00;5033928;28;98108;-34
2022/05/19 09:31:34;;;;;;;10.85;4.50;;;;;;;23.72;63.34;101748.16;5032426;28;101098;-33
2022/05/19 09:33:59;;;;;;;12.85;5.13;;;;;;;23.70;63.73;101752.97;5032053;28;96590;-34
2022/05/19 09:36:28;;;;;;;14.00;5.57;;;;;;;23.93;63.04;101743.19;5033221;28;117425;-34
2022/05/19 09:39:01;;;;;;;19.63;5.47;;;;;;;24.10;62.37;101741.41;5033644;28;99552;-34
2022/05/19 09:41:32;;;;;;;10.73;4.47;;;;;;;24.30;62.05;101735.66;5033914;28;97958;-34
2022/05/19 09:43:58;;;;;;;;;;;;;;;24.64;61.42;101746.78;5016496;28;96570;-34
2022/05/19 09:46:36;;;;;;;12.32;3.67;;;;;;;24.78;59.93;101737.00;5034329;28;96686;-33
2022/05/19 09:49:05;;;;;;;9.30;3.53;;;;;;;24.95;59.29;101735.16;5015446;28;101062;-34
2022/05/19 09:51:39;;;;;;;9.25;4.35;;;;;;;25.01;58.63;101715.09;5035239;27;98776;-34
2022/05/19 09:54:04;;;;;;;11.90;4.65;;;;;;;25.23;58.54;101708.09;5019131;28;96580;-34
2022/05/19 09:56:44;;;;;;;11.73;4.32;;;;;;;25.38;58.95;101717.47;5019044;28;96804;-34
2022/05/19 09:59:19;;;;;;;11.48;5.32;;;;;;;25.58;57.38;101711.63;5018394;28;101079;-33
2022/05/19 10:01:47;;;;;;;13.60;5.28;;;;;;;25.70;57.94;101721.34;5035026;28;100900;-34
2022/05/19 10:04:29;;;;;;;12.23;5.95;;;;;;;25.60;57.80;101707.63;5002233;28;96763;-34
2022/05/19 10:06:57;;;;;;;9.75;5.22;;;;;;;25.54;58.55;101699.13;5018811;28;96935;-34
2022/05/19 10:09:39;;;;;;;14.43;5.22;;;;;;;25.64;57.15;101692.34;5035308;28;103910;-34
2022/05/19 10:12:09;;;;;;;9.70;5.20;;;;;;;25.50;58.23;101697.72;5018786;28;97098;-34
2022/05/19 10:14:35;;;;;;;11.10;5.00;;;;;;;25.35;59.00;101686.44;5037037;28;96663;-34
2022/05/19 10:17:19;;;;;;;13.00;5.85;;;;;;;25.18;59.02;101693.84;5036916;28;96860;-34
2022/05/19 10:19:56;;;;;;;12.07;6.40;;;;;;;25.09;59.19;101705.94;5036591;28;99362;-34
2022/05/19 10:22:24;;;;;;;15.05;6.18;;;;;;;24.86;58.93;101725.97;5034937;28;100786;-34
2022/05/19 10:25:17;;;;;;;12.23;6.00;;;;;;;24.63;59.52;101722.91;5034940;28;96613;-34
2022/05/19 10:31:25;;;;;;;12.98;5.93;;;;;;;24.20;61.38;101726.59;5036329;28;97131;-34
2022/05/19 10:34:24;;;;;;;13.52;6.03;;;;;;;24.03;61.83;101745.84;5034984;28;100917;-34
2022/05/19 10:37:05;;;;;;;12.15;5.75;;;;;;;23.90;62.49;101748.16;5036838;28;96534;-34
2022/05/19 10:39:55;;;;;;;13.07;5.60;;;;;;;23.78;63.53;101739.22;5036429;28;96759;-34
2022/05/19 10:42:45;;;;;;;13.25;5.95;;;;;;;23.66;63.30;101746.00;5035986;28;99220;-34
2022/05/19 10:45:17;;;;;;;17.25;6.18;;;;;;;23.53;63.56;101760.22;5035072;28;100879;-34
2022/05/19 10:48:20;;;;;;;13.52;5.68;;;;;;;23.36;65.49;101766.59;5035248;28;96697;-34
2022/05/19 10:51:13;;;;;;;16.10;5.60;;;;;;;23.26;65.72;101810.91;5036774;28;96982;-34
2022/05/19 10:53:58;;;;;;;12.52;6.30;;;;;;;23.07;66.43;101856.09;5027386;28;100962;-34
2022/05/19 10:56:30;;;;;;;26.63;10.25;;;;;;;22.64;68.03;101916.41;5034609;28;101087;-34
2022/05/19 10:59:05;;;;;;;33.63;6.70;;;;;;;22.00;70.00;101930.72;5034993;28;96678;-34
2022/05/19 11:01:36;;;;;;;12.25;4.63;;;;;;;21.54;70.47;101935.81;5034412;28;96789;-34
2022/05/19 11:04:09;;;;;;;7.97;4.13;;;;;;;21.28;71.03;101895.94;5036016;28;98012;-34
2022/05/19 11:07:11;;;;;;;7.18;3.67;;;;;;;21.14;71.51;101888.91;5034340;28;100733;-34
2022/05/19 11:09:46;;;;;;;8.52;4.22;;;;;;;21.10;71.33;101920.53;5035875;28;96568;-33
2022/05/19 11:12:40;;;;;;;9.63;4.65;;;;;;;20.99;72.04;101922.31;5036171;28;96894;-34
2022/05/19 11:15:29;;;;;;;12.25;4.88;;;;;;;20.87;73.37;101928.06;5034185;28;98076;-34
2022/05/19 11:18:08;;;;;;;15.05;6.25;;;;;;;20.76;72.62;101929.88;5026128;27;97876;-34
2022/05/19 11:20:53;;;;;;;12.82;6.22;;;;;;;20.74;72.57;101940.16;5033903;28;96586;-34
2022/05/19 11:24:03;;;;;;;15.10;7.20;;;;;;;20.72;73.62;101927.53;5034621;28;96559;-34
2022/05/19 11:26:44;;;;;;;18.75;7.47;;;;;;;20.68;73.66;101907.63;5017310;28;102128;-34
2022/05/19 11:29:24;;;;;;;16.10;8.43;;;;;;;20.63;73.03;101912.69;5033812;28;100901;-34
2022/05/19 11:32:19;;;;;;;20.58;8.05;;;;;;;20.55;73.67;101923.47;5017657;28;96659;-34
2022/05/19 11:35:13;;;;;;;16.98;7.85;;;;;;;20.49;74.97;101927.59;5034348;28;96673;-34
2022/05/19 11:37:45;;;;;;;21.75;7.78;;;;;;;20.46;73.07;101935.28;5035162;28;99456;-34
2022/05/19 11:40:32;;;;;;;14.25;7.70;;;;;;;20.48;74.51;101939.63;5034498;28;101338;-34
2022/05/19 11:43:21;;;;;;;14.45;7.32;;;;;;;20.41;74.66;101934.78;5017470;28;96668;-34